sensor_id;sensor_type;location;lat;lon;timestamp;temperature;humidity
36586;DHT22;22591;48.314;11.562;2022-08-05T00:01:39;22.20;83.90
36586;DHT22;22591;48.314;11.562;2022-08-05T00:04:04;22.30;84.00
36586;DHT22;22591;48.314;11.562;2022-08-05T00:06:30;22.30;84.10
36586;DHT22;22591;48.314;11.562;2022-08-05T00:08:55;22.30;84.40
36586;DHT22;22591;48.314;11.562;2022-08-05T00:11:21;22.20;84.80
36586;DHT22;22591;48.314;11.562;2022-08-05T00:13:47;22.20;85.20
36586;DHT22;22591;48.314;11.562;2022-08-05T00:16:13;22.10;85.30
36586;DHT22;22591;48.314;11.562;2022-08-05T00:18:42;22.10;86.00
36586;DHT22;22591;48.314;11.562;2022-08-05T00:21:08;22.00;86.30
36586;DHT22;22591;48.314;11.562;2022-08-05T00:23:35;22.00;86.60
36586;DHT22;22591;48.314;11.562;2022-08-05T00:26:01;22.00;87.30
36586;DHT22;22591;48.314;11.562;2022-08-05T00:28:27;22.00;86.60
36586;DHT22;22591;48.314;11.562;2022-08-05T00:30:52;22.00;86.60
36586;DHT22;22591;48.314;11.562;2022-08-05T00:33:18;21.80;87.00
36586;DHT22;22591;48.314;11.562;2022-08-05T00:35:43;21.80;87.90
36586;DHT22;22591;48.314;11.562;2022-08-05T00:38:09;21.70;88.80
36586;DHT22;22591;48.314;11.562;2022-08-05T00:40:48;21.60;89.50
36586;DHT22;22591;48.314;11.562;2022-08-05T00:43:14;21.60;89.70
36586;DHT22;22591;48.314;11.562;2022-08-05T00:45:40;21.50;89.40
36586;DHT22;22591;48.314;11.562;2022-08-05T00:48:10;21.40;90.10
36586;DHT22;22591;48.314;11.562;2022-08-05T00:50:38;21.40;90.10
36586;DHT22;22591;48.314;11.562;2022-08-05T00:53:05;21.30;90.00
36586;DHT22;22591;48.314;11.562;2022-08-05T00:55:31;21.20;90.10
36586;DHT22;22591;48.314;11.562;2022-08-05T00:57:56;21.20;90.20
36586;DHT22;22591;48.314;11.562;2022-08-05T01:00:22;21.10;90.30
36586;DHT22;22591;48.314;11.562;2022-08-05T01:02:47;21.10;90.40
36586;DHT22;22591;48.314;11.562;2022-08-05T01:05:13;21.10;90.60
36586;DHT22;22591;48.314;11.562;2022-08-05T01:07:39;21.10;90.70
36586;DHT22;22591;48.314;11.562;2022-08-05T01:10:06;21.00;90.80
36586;DHT22;22591;48.314;11.562;2022-08-05T01:12:34;21.00;91.40
36586;DHT22;22591;48.314;11.562;2022-08-05T01:15:03;21.00;91.30
36586;DHT22;22591;48.314;11.562;2022-08-05T01:17:35;21.00;91.50
36586;DHT22;22591;48.314;11.562;2022-08-05T01:23:07;21.00;91.90
36586;DHT22;22591;48.314;11.562;2022-08-05T01:34:08;21.00;92.50
36586;DHT22;22591;48.314;11.562;2022-08-05T01:36:42;21.00;92.80
36586;DHT22;22591;48.314;11.562;2022-08-05T01:39:10;21.00;93.00
36586;DHT22;22591;48.314;11.562;2022-08-05T01:41:38;21.00;92.90
36586;DHT22;22591;48.314;11.562;2022-08-05T01:44:06;20.90;93.00
36586;DHT22;22591;48.314;11.562;2022-08-05T01:46:34;20.80;93.00
36586;DHT22;22591;48.314;11.562;2022-08-05T01:49:00;20.80;93.00
36586;DHT22;22591;48.314;11.562;2022-08-05T01:51:30;20.70;93.20
36586;DHT22;22591;48.314;11.562;2022-08-05T01:53:58;20.60;93.40
36586;DHT22;22591;48.314;11.562;2022-08-05T01:56:28;20.50;93.90
36586;DHT22;22591;48.314;11.562;2022-08-05T01:58:55;20.40;94.30
36586;DHT22;22591;48.314;11.562;2022-08-05T02:01:22;20.30;94.60
36586;DHT22;22591;48.314;11.562;2022-08-05T02:03:50;20.30;94.80
36586;DHT22;22591;48.314;11.562;2022-08-05T02:06:17;20.30;95.20
36586;DHT22;22591;48.314;11.562;2022-08-05T02:08:43;20.30;95.30
36586;DHT22;22591;48.314;11.562;2022-08-05T02:11:14;20.10;95.50
36586;DHT22;22591;48.314;11.562;2022-08-05T02:13:51;20.10;95.90
36586;DHT22;22591;48.314;11.562;2022-08-05T02:18:58;19.90;97.10
36586;DHT22;22591;48.314;11.562;2022-08-05T02:21:32;19.90;97.70
36586;DHT22;22591;48.314;11.562;2022-08-05T02:24:04;19.80;98.10
36586;DHT22;22591;48.314;11.562;2022-08-05T02:26:48;19.80;98.40
36586;DHT22;22591;48.314;11.562;2022-08-05T02:29:18;19.80;98.80
36586;DHT22;22591;48.314;11.562;2022-08-05T02:31:46;19.80;99.10
36586;DHT22;22591;48.314;11.562;2022-08-05T02:34:13;19.70;99.50
36586;DHT22;22591;48.314;11.562;2022-08-05T02:36:50;19.70;99.80
36586;DHT22;22591;48.314;11.562;2022-08-05T02:39:21;19.70;99.90
36586;DHT22;22591;48.314;11.562;2022-08-05T02:41:48;19.60;99.90
36586;DHT22;22591;48.314;11.562;2022-08-05T02:44:15;19.60;99.90
36586;DHT22;22591;48.314;11.562;2022-08-05T02:46:44;19.50;99.90
36586;DHT22;22591;48.314;11.562;2022-08-05T02:49:11;19.40;99.90
36586;DHT22;22591;48.314;11.562;2022-08-05T02:51:37;19.30;99.90
36586;DHT22;22591;48.314;11.562;2022-08-05T02:54:05;19.30;99.90
36586;DHT22;22591;48.314;11.562;2022-08-05T02:56:32;19.30;99.90
36586;DHT22;22591;48.314;11.562;2022-08-05T02:58:59;19.30;99.90
36586;DHT22;22591;48.314;11.562;2022-08-05T03:01:26;19.30;99.90
36586;DHT22;22591;48.314;11.562;2022-08-05T03:03:55;19.30;99.90
36586;DHT22;22591;48.314;11.562;2022-08-05T03:06:22;19.30;99.90
36586;DHT22;22591;48.314;11.562;2022-08-05T03:08:49;19.30;99.90
36586;DHT22;22591;48.314;11.562;2022-08-05T03:11:22;19.40;99.90
36586;DHT22;22591;48.314;11.562;2022-08-05T03:13:49;19.30;99.90
36586;DHT22;22591;48.314;11.562;2022-08-05T03:16:15;19.30;99.90
36586;DHT22;22591;48.314;11.562;2022-08-05T03:18:41;19.30;99.90
36586;DHT22;22591;48.314;11.562;2022-08-05T03:21:07;19.20;99.90
36586;DHT22;22591;48.314;11.562;2022-08-05T03:23:34;19.10;99.90
36586;DHT22;22591;48.314;11.562;2022-08-05T03:26:01;19.10;99.90
36586;DHT22;22591;48.314;11.562;2022-08-05T03:28:28;19.00;99.90
36586;DHT22;22591;48.314;11.562;2022-08-05T03:30:55;19.00;99.90
36586;DHT22;22591;48.314;11.562;2022-08-05T03:33:20;18.90;99.90
36586;DHT22;22591;48.314;11.562;2022-08-05T03:35:46;18.90;99.90
36586;DHT22;22591;48.314;11.562;2022-08-05T03:38:13;18.90;99.90
36586;DHT22;22591;48.314;11.562;2022-08-05T03:40:40;18.80;99.90
36586;DHT22;22591;48.314;11.562;2022-08-05T03:43:05;18.90;99.90
36586;DHT22;22591;48.314;11.562;2022-08-05T03:45:31;18.90;99.90
36586;DHT22;22591;48.314;11.562;2022-08-05T03:47:56;18.90;99.90
36586;DHT22;22591;48.314;11.562;2022-08-05T03:50:22;18.90;99.90
36586;DHT22;22591;48.314;11.562;2022-08-05T03:52:54;18.90;99.90
36586;DHT22;22591;48.314;11.562;2022-08-05T03:55:26;18.90;99.90
36586;DHT22;22591;48.314;11.562;2022-08-05T03:57:54;19.00;99.90
36586;DHT22;22591;48.314;11.562;2022-08-05T04:00:23;19.00;99.90
36586;DHT22;22591;48.314;11.562;2022-08-05T04:02:54;19.00;99.90
36586;DHT22;22591;48.314;11.562;2022-08-05T04:05:22;19.20;99.90
36586;DHT22;22591;48.314;11.562;2022-08-05T04:07:48;19.20;99.90
36586;DHT22;22591;48.314;11.562;2022-08-05T04:10:15;19.20;99.90
36586;DHT22;22591;48.314;11.562;2022-08-05T04:12:41;19.20;99.90
36586;DHT22;22591;48.314;11.562;2022-08-05T04:15:07;19.30;99.90
36586;DHT22;22591;48.314;11.562;2022-08-05T04:17:34;19.30;99.90
36586;DHT22;22591;48.314;11.562;2022-08-05T04:20:00;19.40;99.90
36586;DHT22;22591;48.314;11.562;2022-08-05T04:22:26;19.50;99.90
36586;DHT22;22591;48.314;11.562;2022-08-05T04:24:51;19.50;99.90
36586;DHT22;22591;48.314;11.562;2022-08-05T04:27:17;19.60;99.90
36586;DHT22;22591;48.314;11.562;2022-08-05T04:29:43;19.70;99.90
36586;DHT22;22591;48.314;11.562;2022-08-05T04:32:08;19.80;99.90
36586;DHT22;22591;48.314;11.562;2022-08-05T04:34:34;19.90;99.90
36586;DHT22;22591;48.314;11.562;2022-08-05T04:37:01;20.00;99.90
36586;DHT22;22591;48.314;11.562;2022-08-05T04:39:26;20.10;99.90
36586;DHT22;22591;48.314;11.562;2022-08-05T04:41:52;20.20;99.90
36586;DHT22;22591;48.314;11.562;2022-08-05T04:44:18;20.30;99.90
36586;DHT22;22591;48.314;11.562;2022-08-05T04:46:44;20.40;99.90
36586;DHT22;22591;48.314;11.562;2022-08-05T04:49:10;20.50;99.90
36586;DHT22;22591;48.314;11.562;2022-08-05T04:51:35;20.60;99.90
36586;DHT22;22591;48.314;11.562;2022-08-05T04:54:01;21.00;99.90
36586;DHT22;22591;48.314;11.562;2022-08-05T04:56:26;21.50;99.90
36586;DHT22;22591;48.314;11.562;2022-08-05T04:58:52;21.90;99.90
36586;DHT22;22591;48.314;11.562;2022-08-05T05:01:18;22.00;99.90
36586;DHT22;22591;48.314;11.562;2022-08-05T05:03:43;21.90;99.90
36586;DHT22;22591;48.314;11.562;2022-08-05T05:06:10;21.90;99.90
36586;DHT22;22591;48.314;11.562;2022-08-05T05:08:36;21.90;99.90
36586;DHT22;22591;48.314;11.562;2022-08-05T05:11:02;21.90;99.90
36586;DHT22;22591;48.314;11.562;2022-08-05T05:13:28;22.00;99.90
36586;DHT22;22591;48.314;11.562;2022-08-05T05:15:54;22.00;99.90
36586;DHT22;22591;48.314;11.562;2022-08-05T05:18:20;22.00;99.90
36586;DHT22;22591;48.314;11.562;2022-08-05T05:20:46;22.10;99.90
36586;DHT22;22591;48.314;11.562;2022-08-05T05:23:12;22.00;99.90
36586;DHT22;22591;48.314;11.562;2022-08-05T05:25:42;22.20;99.90
36586;DHT22;22591;48.314;11.562;2022-08-05T05:28:09;22.20;99.90
36586;DHT22;22591;48.314;11.562;2022-08-05T05:30:35;22.30;99.90
36586;DHT22;22591;48.314;11.562;2022-08-05T05:33:01;22.50;99.90
36586;DHT22;22591;48.314;11.562;2022-08-05T05:35:28;22.60;99.90
36586;DHT22;22591;48.314;11.562;2022-08-05T05:37:55;22.70;99.90
36586;DHT22;22591;48.314;11.562;2022-08-05T05:40:23;22.80;99.90
36586;DHT22;22591;48.314;11.562;2022-08-05T05:42:49;22.90;99.90
36586;DHT22;22591;48.314;11.562;2022-08-05T05:45:15;23.00;99.90
36586;DHT22;22591;48.314;11.562;2022-08-05T05:47:42;23.10;99.90
36586;DHT22;22591;48.314;11.562;2022-08-05T05:50:09;23.30;99.70
36586;DHT22;22591;48.314;11.562;2022-08-05T05:52:35;23.40;99.30
36586;DHT22;22591;48.314;11.562;2022-08-05T05:55:02;23.60;98.90
36586;DHT22;22591;48.314;11.562;2022-08-05T05:57:28;23.80;98.50
36586;DHT22;22591;48.314;11.562;2022-08-05T05:59:54;24.10;98.30
36586;DHT22;22591;48.314;11.562;2022-08-05T06:02:20;24.40;97.60
36586;DHT22;22591;48.314;11.562;2022-08-05T06:04:46;24.70;97.20
36586;DHT22;22591;48.314;11.562;2022-08-05T06:07:11;25.00;96.60
36586;DHT22;22591;48.314;11.562;2022-08-05T06:09:37;25.30;95.90
36586;DHT22;22591;48.314;11.562;2022-08-05T06:12:04;25.30;95.40
36586;DHT22;22591;48.314;11.562;2022-08-05T06:14:30;25.30;95.30
36586;DHT22;22591;48.314;11.562;2022-08-05T06:16:56;25.20;94.70
36586;DHT22;22591;48.314;11.562;2022-08-05T06:19:22;25.10;94.30
36586;DHT22;22591;48.314;11.562;2022-08-05T06:21:47;25.10;93.70
36586;DHT22;22591;48.314;11.562;2022-08-05T06:24:13;25.10;92.90
36586;DHT22;22591;48.314;11.562;2022-08-05T06:26:39;25.10;92.80
36586;DHT22;22591;48.314;11.562;2022-08-05T06:29:05;25.20;92.90
36586;DHT22;22591;48.314;11.562;2022-08-05T06:31:30;25.30;91.80
36586;DHT22;22591;48.314;11.562;2022-08-05T06:33:56;25.40;91.50
36586;DHT22;22591;48.314;11.562;2022-08-05T06:36:22;25.60;91.30
36586;DHT22;22591;48.314;11.562;2022-08-05T06:38:48;25.90;90.80
36586;DHT22;22591;48.314;11.562;2022-08-05T06:41:18;26.00;90.50
36586;DHT22;22591;48.314;11.562;2022-08-05T06:43:43;26.10;90.20
36586;DHT22;22591;48.314;11.562;2022-08-05T06:46:09;26.30;89.40
36586;DHT22;22591;48.314;11.562;2022-08-05T06:48:34;26.40;88.60
36586;DHT22;22591;48.314;11.562;2022-08-05T06:51:00;26.50;88.30
36586;DHT22;22591;48.314;11.562;2022-08-05T06:53:27;26.60;87.50
36586;DHT22;22591;48.314;11.562;2022-08-05T06:55:53;26.70;86.60
36586;DHT22;22591;48.314;11.562;2022-08-05T06:58:18;26.80;85.90
36586;DHT22;22591;48.314;11.562;2022-08-05T07:00:44;27.00;85.20
36586;DHT22;22591;48.314;11.562;2022-08-05T07:03:09;27.10;84.60
36586;DHT22;22591;48.314;11.562;2022-08-05T07:05:35;27.20;84.20
36586;DHT22;22591;48.314;11.562;2022-08-05T07:08:01;27.40;82.90
36586;DHT22;22591;48.314;11.562;2022-08-05T07:10:26;27.50;82.80
36586;DHT22;22591;48.314;11.562;2022-08-05T07:12:52;27.60;81.90
36586;DHT22;22591;48.314;11.562;2022-08-05T07:15:36;27.80;80.00
36586;DHT22;22591;48.314;11.562;2022-08-05T07:18:20;28.20;78.60
36586;DHT22;22591;48.314;11.562;2022-08-05T07:20:46;28.30;77.20
36586;DHT22;22591;48.314;11.562;2022-08-05T07:23:11;28.50;75.70
36586;DHT22;22591;48.314;11.562;2022-08-05T07:25:37;28.50;74.90
36586;DHT22;22591;48.314;11.562;2022-08-05T07:28:02;28.70;74.90
36586;DHT22;22591;48.314;11.562;2022-08-05T07:30:30;28.70;73.80
36586;DHT22;22591;48.314;11.562;2022-08-05T07:32:56;28.70;73.60
36586;DHT22;22591;48.314;11.562;2022-08-05T07:35:21;28.50;74.00
36586;DHT22;22591;48.314;11.562;2022-08-05T07:37:47;28.50;74.50
36586;DHT22;22591;48.314;11.562;2022-08-05T07:40:12;28.50;74.20
36586;DHT22;22591;48.314;11.562;2022-08-05T07:42:38;28.40;74.20
36586;DHT22;22591;48.314;11.562;2022-08-05T07:45:05;28.20;74.40
36586;DHT22;22591;48.314;11.562;2022-08-05T07:47:31;28.20;74.40
36586;DHT22;22591;48.314;11.562;2022-08-05T07:49:57;27.90;75.30
36586;DHT22;22591;48.314;11.562;2022-08-05T07:52:22;27.90;75.60
36586;DHT22;22591;48.314;11.562;2022-08-05T07:54:48;27.90;76.00
36586;DHT22;22591;48.314;11.562;2022-08-05T07:57:13;27.80;76.60
36586;DHT22;22591;48.314;11.562;2022-08-05T07:59:39;27.70;76.30
36586;DHT22;22591;48.314;11.562;2022-08-05T08:02:05;27.70;75.60
36586;DHT22;22591;48.314;11.562;2022-08-05T08:04:34;27.80;75.70
36586;DHT22;22591;48.314;11.562;2022-08-05T08:06:59;27.80;75.70
36586;DHT22;22591;48.314;11.562;2022-08-05T08:09:26;27.90;76.50
36586;DHT22;22591;48.314;11.562;2022-08-05T08:11:51;28.00;75.50
36586;DHT22;22591;48.314;11.562;2022-08-05T08:14:17;28.00;74.80
36586;DHT22;22591;48.314;11.562;2022-08-05T08:16:42;27.90;75.00
36586;DHT22;22591;48.314;11.562;2022-08-05T08:19:08;27.80;75.50
36586;DHT22;22591;48.314;11.562;2022-08-05T08:21:34;27.60;75.30
36586;DHT22;22591;48.314;11.562;2022-08-05T08:23:59;27.60;74.80
36586;DHT22;22591;48.314;11.562;2022-08-05T08:26:25;27.70;74.10
36586;DHT22;22591;48.314;11.562;2022-08-05T08:28:51;27.60;74.20
36586;DHT22;22591;48.314;11.562;2022-08-05T08:31:16;27.40;73.00
36586;DHT22;22591;48.314;11.562;2022-08-05T08:33:46;27.30;73.60
36586;DHT22;22591;48.314;11.562;2022-08-05T08:36:11;27.40;74.40
36586;DHT22;22591;48.314;11.562;2022-08-05T08:38:37;27.40;72.40
36586;DHT22;22591;48.314;11.562;2022-08-05T08:41:05;27.30;74.00
36586;DHT22;22591;48.314;11.562;2022-08-05T08:43:35;27.50;73.50
36586;DHT22;22591;48.314;11.562;2022-08-05T08:46:02;27.50;72.90
36586;DHT22;22591;48.314;11.562;2022-08-05T08:48:30;27.50;73.30
36586;DHT22;22591;48.314;11.562;2022-08-05T08:50:56;27.70;73.70
36586;DHT22;22591;48.314;11.562;2022-08-05T08:53:24;28.00;71.80
36586;DHT22;22591;48.314;11.562;2022-08-05T08:55:52;27.90;71.90
36586;DHT22;22591;48.314;11.562;2022-08-05T08:58:18;27.90;72.30
36586;DHT22;22591;48.314;11.562;2022-08-05T09:00:44;28.00;71.90
36586;DHT22;22591;48.314;11.562;2022-08-05T09:03:10;28.00;72.20
36586;DHT22;22591;48.314;11.562;2022-08-05T09:05:36;28.00;71.60
36586;DHT22;22591;48.314;11.562;2022-08-05T09:08:02;28.00;72.40
36586;DHT22;22591;48.314;11.562;2022-08-05T09:10:27;28.00;71.50
36586;DHT22;22591;48.314;11.562;2022-08-05T09:12:54;28.00;72.20
36586;DHT22;22591;48.314;11.562;2022-08-05T09:15:19;28.20;71.80
36586;DHT22;22591;48.314;11.562;2022-08-05T09:17:45;28.20;70.70
36586;DHT22;22591;48.314;11.562;2022-08-05T09:20:12;28.10;70.70
36586;DHT22;22591;48.314;11.562;2022-08-05T09:23:15;28.10;70.80
36586;DHT22;22591;48.314;11.562;2022-08-05T09:25:43;28.10;70.70
36586;DHT22;22591;48.314;11.562;2022-08-05T09:28:19;28.20;70.60
36586;DHT22;22591;48.314;11.562;2022-08-05T09:31:01;28.20;70.00
36586;DHT22;22591;48.314;11.562;2022-08-05T09:33:30;28.20;69.60
36586;DHT22;22591;48.314;11.562;2022-08-05T09:36:04;28.10;70.00
36586;DHT22;22591;48.314;11.562;2022-08-05T09:38:30;28.30;69.50
36586;DHT22;22591;48.314;11.562;2022-08-05T09:41:04;28.50;68.80
36586;DHT22;22591;48.314;11.562;2022-08-05T09:43:32;28.70;68.70
36586;DHT22;22591;48.314;11.562;2022-08-05T09:45:58;29.00;67.30
36586;DHT22;22591;48.314;11.562;2022-08-05T09:50:52;29.30;65.80
36586;DHT22;22591;48.314;11.562;2022-08-05T09:53:18;29.40;65.80
36586;DHT22;22591;48.314;11.562;2022-08-05T09:55:44;29.50;65.10
36586;DHT22;22591;48.314;11.562;2022-08-05T09:58:14;29.50;65.30
36586;DHT22;22591;48.314;11.562;2022-08-05T10:01:01;29.50;64.70
36586;DHT22;22591;48.314;11.562;2022-08-05T10:03:28;29.40;65.30
36586;DHT22;22591;48.314;11.562;2022-08-05T10:08:29;29.50;64.50
36586;DHT22;22591;48.314;11.562;2022-08-05T10:10:55;29.70;64.60
36586;DHT22;22591;48.314;11.562;2022-08-05T10:13:31;29.70;63.90
36586;DHT22;22591;48.314;11.562;2022-08-05T10:15:57;29.70;63.70
36586;DHT22;22591;48.314;11.562;2022-08-05T10:18:25;29.70;64.40
36586;DHT22;22591;48.314;11.562;2022-08-05T10:21:03;29.70;64.30
36586;DHT22;22591;48.314;11.562;2022-08-05T10:23:35;29.80;63.90
36586;DHT22;22591;48.314;11.562;2022-08-05T10:26:03;29.60;64.30
36586;DHT22;22591;48.314;11.562;2022-08-05T10:28:29;29.60;64.00
36586;DHT22;22591;48.314;11.562;2022-08-05T10:30:56;29.50;64.30
36586;DHT22;22591;48.314;11.562;2022-08-05T10:33:24;29.60;64.70
36586;DHT22;22591;48.314;11.562;2022-08-05T10:35:52;29.60;64.10
36586;DHT22;22591;48.314;11.562;2022-08-05T10:38:22;29.50;63.00
36586;DHT22;22591;48.314;11.562;2022-08-05T10:46:08;29.30;63.10
36586;DHT22;22591;48.314;11.562;2022-08-05T10:48:39;29.50;62.50
36586;DHT22;22591;48.314;11.562;2022-08-05T10:53:37;29.50;62.20
36586;DHT22;22591;48.314;11.562;2022-08-05T10:56:12;29.50;61.90
36586;DHT22;22591;48.314;11.562;2022-08-05T11:01:40;29.80;61.60
36586;DHT22;22591;48.314;11.562;2022-08-05T11:04:18;29.90;61.20
36586;DHT22;22591;48.314;11.562;2022-08-05T11:09:35;30.10;60.40
36586;DHT22;22591;48.314;11.562;2022-08-05T11:12:01;30.10;60.90
36586;DHT22;22591;48.314;11.562;2022-08-05T11:14:33;30.20;60.60
36586;DHT22;22591;48.314;11.562;2022-08-05T11:17:31;30.20;60.30
36586;DHT22;22591;48.314;11.562;2022-08-05T11:19:59;30.40;60.10
36586;DHT22;22591;48.314;11.562;2022-08-05T11:22:43;30.50;60.10
36586;DHT22;22591;48.314;11.562;2022-08-05T11:25:32;30.60;60.10
36586;DHT22;22591;48.314;11.562;2022-08-05T11:33:27;30.70;60.00
36586;DHT22;22591;48.314;11.562;2022-08-05T11:35:58;30.80;60.10
36586;DHT22;22591;48.314;11.562;2022-08-05T11:43:43;31.30;59.40
36586;DHT22;22591;48.314;11.562;2022-08-05T11:46:10;31.60;59.20
36586;DHT22;22591;48.314;11.562;2022-08-05T11:48:40;31.80;58.50
36586;DHT22;22591;48.314;11.562;2022-08-05T11:51:06;31.70;58.00
36586;DHT22;22591;48.314;11.562;2022-08-05T11:53:32;31.80;58.20
36586;DHT22;22591;48.314;11.562;2022-08-05T11:56:00;31.90;57.70
36586;DHT22;22591;48.314;11.562;2022-08-05T11:58:37;32.10;56.20
36586;DHT22;22591;48.314;11.562;2022-08-05T12:01:11;32.30;56.10
36586;DHT22;22591;48.314;11.562;2022-08-05T12:03:56;32.20;55.10
36586;DHT22;22591;48.314;11.562;2022-08-05T12:06:24;32.00;55.40
36586;DHT22;22591;48.314;11.562;2022-08-05T12:08:52;32.20;55.40
36586;DHT22;22591;48.314;11.562;2022-08-05T12:11:23;32.60;54.80
36586;DHT22;22591;48.314;11.562;2022-08-05T12:13:56;32.70;53.90
36586;DHT22;22591;48.314;11.562;2022-08-05T12:16:24;32.90;53.60
36586;DHT22;22591;48.314;11.562;2022-08-05T12:18:50;33.30;53.90
36586;DHT22;22591;48.314;11.562;2022-08-05T12:21:28;33.60;53.00
36586;DHT22;22591;48.314;11.562;2022-08-05T12:29:00;33.90;52.90
36586;DHT22;22591;48.314;11.562;2022-08-05T12:31:26;34.00;52.30
36586;DHT22;22591;48.314;11.562;2022-08-05T12:33:52;33.60;52.50
36586;DHT22;22591;48.314;11.562;2022-08-05T12:36:20;33.70;52.10
36586;DHT22;22591;48.314;11.562;2022-08-05T12:38:46;33.60;51.80
36586;DHT22;22591;48.314;11.562;2022-08-05T12:41:12;33.70;51.60
36586;DHT22;22591;48.314;11.562;2022-08-05T12:43:56;33.30;51.30
36586;DHT22;22591;48.314;11.562;2022-08-05T12:46:22;33.30;51.50
36586;DHT22;22591;48.314;11.562;2022-08-05T12:48:56;33.10;51.90
36586;DHT22;22591;48.314;11.562;2022-08-05T12:51:21;33.00;52.10
36586;DHT22;22591;48.314;11.562;2022-08-05T12:53:47;32.70;52.20
36586;DHT22;22591;48.314;11.562;2022-08-05T12:56:30;32.50;52.60
36586;DHT22;22591;48.314;11.562;2022-08-05T12:59:20;32.50;53.00
36586;DHT22;22591;48.314;11.562;2022-08-05T13:02:14;32.50;52.40
36586;DHT22;22591;48.314;11.562;2022-08-05T13:04:42;32.40;52.30
36586;DHT22;22591;48.314;11.562;2022-08-05T13:07:22;32.20;53.00
36586;DHT22;22591;48.314;11.562;2022-08-05T13:09:54;32.20;53.20
36586;DHT22;22591;48.314;11.562;2022-08-05T13:12:22;32.00;53.40
36586;DHT22;22591;48.314;11.562;2022-08-05T13:14:58;31.80;53.30
36586;DHT22;22591;48.314;11.562;2022-08-05T13:17:30;31.80;53.50
36586;DHT22;22591;48.314;11.562;2022-08-05T13:20:11;32.00;53.90
36586;DHT22;22591;48.314;11.562;2022-08-05T13:22:51;32.20;53.70
36586;DHT22;22591;48.314;11.562;2022-08-05T13:25:18;32.40;53.40
36586;DHT22;22591;48.314;11.562;2022-08-05T13:27:49;32.60;52.80
36586;DHT22;22591;48.314;11.562;2022-08-05T13:30:17;32.70;52.60
36586;DHT22;22591;48.314;11.562;2022-08-05T13:32:44;32.50;52.70
36586;DHT22;22591;48.314;11.562;2022-08-05T13:35:13;32.40;53.90
36586;DHT22;22591;48.314;11.562;2022-08-05T13:37:39;32.10;54.10
36586;DHT22;22591;48.314;11.562;2022-08-05T13:40:06;32.40;53.80
36586;DHT22;22591;48.314;11.562;2022-08-05T13:42:32;32.60;53.60
36586;DHT22;22591;48.314;11.562;2022-08-05T13:44:58;32.70;53.70
36586;DHT22;22591;48.314;11.562;2022-08-05T13:47:24;32.70;54.30
36586;DHT22;22591;48.314;11.562;2022-08-05T13:49:50;32.80;53.10
36586;DHT22;22591;48.314;11.562;2022-08-05T13:52:24;32.80;53.20
36586;DHT22;22591;48.314;11.562;2022-08-05T13:54:54;33.10;52.90
36586;DHT22;22591;48.314;11.562;2022-08-05T13:57:20;33.30;52.80
36586;DHT22;22591;48.314;11.562;2022-08-05T13:59:46;33.50;52.80
36586;DHT22;22591;48.314;11.562;2022-08-05T14:02:13;33.70;52.10
36586;DHT22;22591;48.314;11.562;2022-08-05T14:04:43;33.70;51.20
36586;DHT22;22591;48.314;11.562;2022-08-05T14:07:29;33.50;51.10
36586;DHT22;22591;48.314;11.562;2022-08-05T14:09:56;33.50;51.70
36586;DHT22;22591;48.314;11.562;2022-08-05T14:12:22;33.30;53.20
36586;DHT22;22591;48.314;11.562;2022-08-05T14:14:48;33.40;53.40
36586;DHT22;22591;48.314;11.562;2022-08-05T14:17:14;33.70;54.20
36586;DHT22;22591;48.314;11.562;2022-08-05T14:19:40;33.70;53.90
36586;DHT22;22591;48.314;11.562;2022-08-05T14:22:06;33.70;54.20
36586;DHT22;22591;48.314;11.562;2022-08-05T14:24:31;33.70;53.60
36586;DHT22;22591;48.314;11.562;2022-08-05T14:26:57;33.80;53.00
36586;DHT22;22591;48.314;11.562;2022-08-05T14:29:22;33.70;53.10
36586;DHT22;22591;48.314;11.562;2022-08-05T14:31:48;33.70;52.80
36586;DHT22;22591;48.314;11.562;2022-08-05T14:34:14;33.60;52.50
36586;DHT22;22591;48.314;11.562;2022-08-05T14:36:39;33.50;53.10
36586;DHT22;22591;48.314;11.562;2022-08-05T14:39:05;33.30;53.00
36586;DHT22;22591;48.314;11.562;2022-08-05T14:41:31;33.40;53.50
36586;DHT22;22591;48.314;11.562;2022-08-05T14:43:57;33.30;53.00
36586;DHT22;22591;48.314;11.562;2022-08-05T14:46:26;33.30;52.80
36586;DHT22;22591;48.314;11.562;2022-08-05T14:48:51;33.30;53.70
36586;DHT22;22591;48.314;11.562;2022-08-05T14:51:17;33.40;53.60
36586;DHT22;22591;48.314;11.562;2022-08-05T14:53:44;33.40;53.00
36586;DHT22;22591;48.314;11.562;2022-08-05T14:56:10;33.40;52.90
36586;DHT22;22591;48.314;11.562;2022-08-05T14:58:35;33.30;52.00
36586;DHT22;22591;48.314;11.562;2022-08-05T15:01:01;33.10;52.40
36586;DHT22;22591;48.314;11.562;2022-08-05T15:03:28;33.10;52.70
36586;DHT22;22591;48.314;11.562;2022-08-05T15:05:53;33.10;52.70
36586;DHT22;22591;48.314;11.562;2022-08-05T15:08:19;33.10;52.60
36586;DHT22;22591;48.314;11.562;2022-08-05T15:10:44;33.10;52.50
36586;DHT22;22591;48.314;11.562;2022-08-05T15:13:10;33.10;52.90
36586;DHT22;22591;48.314;11.562;2022-08-05T15:15:36;33.10;52.30
36586;DHT22;22591;48.314;11.562;2022-08-05T15:18:01;33.20;52.70
36586;DHT22;22591;48.314;11.562;2022-08-05T15:20:27;33.20;52.80
36586;DHT22;22591;48.314;11.562;2022-08-05T15:22:52;33.30;52.30
36586;DHT22;22591;48.314;11.562;2022-08-05T15:25:18;33.40;52.60
36586;DHT22;22591;48.314;11.562;2022-08-05T15:27:44;33.50;52.20
36586;DHT22;22591;48.314;11.562;2022-08-05T15:30:10;33.70;52.40
36586;DHT22;22591;48.314;11.562;2022-08-05T15:32:37;33.90;51.90
36586;DHT22;22591;48.314;11.562;2022-08-05T15:35:03;34.00;51.90
36586;DHT22;22591;48.314;11.562;2022-08-05T15:37:28;34.10;51.50
36586;DHT22;22591;48.314;11.562;2022-08-05T15:39:54;34.20;51.60
36586;DHT22;22591;48.314;11.562;2022-08-05T15:42:22;34.20;51.90
36586;DHT22;22591;48.314;11.562;2022-08-05T15:44:48;34.40;51.00
36586;DHT22;22591;48.314;11.562;2022-08-05T15:47:14;34.50;50.20
36586;DHT22;22591;48.314;11.562;2022-08-05T15:49:39;34.60;50.00
36586;DHT22;22591;48.314;11.562;2022-08-05T15:52:05;34.60;50.40
36586;DHT22;22591;48.314;11.562;2022-08-05T15:54:31;34.90;50.70
36586;DHT22;22591;48.314;11.562;2022-08-05T15:56:56;35.00;49.90
36586;DHT22;22591;48.314;11.562;2022-08-05T15:59:22;35.10;49.80
36586;DHT22;22591;48.314;11.562;2022-08-05T16:01:48;34.90;49.80
36586;DHT22;22591;48.314;11.562;2022-08-05T16:04:14;34.40;49.40
36586;DHT22;22591;48.314;11.562;2022-08-05T16:06:39;34.00;50.90
36586;DHT22;22591;48.314;11.562;2022-08-05T16:09:05;33.70;51.20